createdAt,value
2018-07-01T00:01:34.200Z,74.80
2018-07-01T00:04:03.449Z,75.30
2018-07-01T00:06:32.735Z,75.30
2018-07-01T00:09:01.787Z,75.00
2018-07-01T00:11:30.205Z,76.90
2018-07-01T00:13:58.991Z,75.40
2018-07-01T00:16:27.387Z,76.90
2018-07-01T00:18:56.557Z,78.00
2018-07-01T00:21:25.060Z,79.40
2018-07-01T00:23:53.456Z,78.40
2018-07-01T00:26:21.812Z,77.20
2018-07-01T00:28:50.273Z,76.80
2018-07-01T00:31:18.658Z,77.70
2018-07-01T00:33:47.156Z,76.60
2018-07-01T00:36:15.588Z,76.30
2018-07-01T00:38:44.032Z,77.50
2018-07-01T00:41:12.594Z,77.00
2018-07-01T00:43:41.178Z,78.30
2018-07-01T00:46:10.192Z,78.10
2018-07-01T00:48:38.692Z,78.10
2018-07-01T00:53:35.004Z,77.70
2018-07-01T00:56:03.492Z,78.30
2018-07-01T00:58:32.472Z,78.70
2018-07-01T01:01:00.887Z,78.30
2018-07-01T01:03:29.218Z,77.30
2018-07-01T01:05:58.466Z,77.30
2018-07-01T01:08:27.527Z,77.40
2018-07-01T01:10:56.622Z,77.10
2018-07-01T01:13:25.089Z,78.00
2018-07-01T01:15:53.524Z,78.90
2018-07-01T01:18:21.981Z,79.00
2018-07-01T01:20:51.514Z,79.00
2018-07-01T01:23:19.932Z,78.00
2018-07-01T01:25:48.878Z,78.00
2018-07-01T01:28:17.376Z,78.30
2018-07-01T01:30:46.142Z,78.60
2018-07-01T01:33:15.156Z,79.40
2018-07-01T01:35:44.503Z,78.50
2018-07-01T01:38:13.387Z,78.50
2018-07-01T01:40:51.351Z,78.40
2018-07-01T01:43:29.197Z,78.10
2018-07-01T01:46:02.072Z,78.10
2018-07-01T01:48:36.522Z,78.90
2018-07-01T01:51:12.428Z,78.30
2018-07-01T01:54:00.087Z,78.80
2018-07-01T01:56:33.058Z,79.30
2018-07-01T01:59:05.220Z,79.40
2018-07-01T02:01:56.028Z,79.30
2018-07-01T02:04:32.608Z,78.50
2018-07-01T02:07:04.896Z,79.40
2018-07-01T02:09:35.300Z,79.00
2018-07-01T02:12:05.854Z,79.70
2018-07-01T02:14:38.813Z,80.90
2018-07-01T02:17:11.448Z,80.20
2018-07-01T02:19:39.824Z,79.60
2018-07-01T02:22:10.652Z,80.80
2018-07-01T02:24:42.765Z,80.10
2018-07-01T02:27:11.544Z,80.40
2018-07-01T02:29:39.937Z,82.00
2018-07-01T02:32:08.935Z,80.90
2018-07-01T02:34:37.349Z,80.40
2018-07-01T02:37:05.786Z,81.50
2018-07-01T02:39:34.169Z,81.50
2018-07-01T02:42:02.637Z,80.50
2018-07-01T02:44:30.973Z,80.50
2018-07-01T02:46:59.406Z,82.80
2018-07-01T02:49:27.910Z,83.50
2018-07-01T02:51:56.370Z,83.80
2018-07-01T02:54:24.808Z,82.40
2018-07-01T02:56:53.866Z,82.60
2018-07-01T02:59:22.300Z,81.60
2018-07-01T03:01:51.515Z,81.40
2018-07-01T03:04:20.679Z,81.80
2018-07-01T03:06:49.152Z,81.40
2018-07-01T03:09:17.507Z,82.10
2018-07-01T03:14:13.893Z,82.30
2018-07-01T03:16:43.128Z,82.70
2018-07-01T03:19:12.090Z,83.20
2018-07-01T03:21:40.892Z,83.10
2018-07-01T03:24:09.266Z,83.10
2018-07-01T03:26:38.082Z,83.20
2018-07-01T03:29:06.586Z,84.20
2018-07-01T03:31:36.185Z,83.50
2018-07-01T03:34:04.784Z,82.60
2018-07-01T03:36:33.372Z,83.60
2018-07-01T03:39:02.172Z,82.30
2018-07-01T03:41:30.699Z,82.40
2018-07-01T03:43:59.687Z,85.00
2018-07-01T03:46:28.032Z,84.10
2018-07-01T03:51:24.404Z,84.30
2018-07-01T03:53:52.800Z,84.40
2018-07-01T03:56:21.302Z,85.20
2018-07-01T03:58:49.687Z,84.80
2018-07-01T04:01:18.696Z,86.00
2018-07-01T04:03:47.077Z,87.20
2018-07-01T04:06:15.607Z,87.80
2018-07-01T04:08:44.008Z,87.90
2018-07-01T04:11:12.716Z,86.90
2018-07-01T04:13:41.111Z,87.50
2018-07-01T04:16:10.586Z,86.40
2018-07-01T04:18:39.078Z,84.80
2018-07-01T04:21:07.728Z,79.70
2018-07-01T04:23:36.126Z,77.00
2018-07-01T04:26:04.539Z,75.40
2018-07-01T04:28:33.284Z,72.30
2018-07-01T04:31:02.029Z,71.00
2018-07-01T04:33:30.385Z,69.40
2018-07-01T04:35:59.070Z,68.30
2018-07-01T04:38:27.445Z,68.20
2018-07-01T04:40:55.811Z,67.80
2018-07-01T04:43:24.242Z,66.50
2018-07-01T04:45:53.183Z,66.50
2018-07-01T04:48:21.603Z,65.90
2018-07-01T04:50:49.997Z,65.30
2018-07-01T04:53:18.408Z,65.60
2018-07-01T04:55:46.840Z,65.10
2018-07-01T04:58:15.207Z,63.70
2018-07-01T05:00:43.614Z,62.50
2018-07-01T05:03:12.676Z,62.20
2018-07-01T05:05:41.044Z,61.70
2018-07-01T05:08:09.546Z,61.10
2018-07-01T05:10:38.016Z,60.50
2018-07-01T05:13:06.495Z,60.10
2018-07-01T05:15:34.973Z,59.90
2018-07-01T05:18:03.549Z,60.70
2018-07-01T05:20:32.558Z,59.20
2018-07-01T05:23:00.960Z,59.00
2018-07-01T05:25:29.410Z,59.10
2018-07-01T05:27:57.940Z,58.40
2018-07-01T05:30:26.907Z,58.90
2018-07-01T05:32:55.305Z,58.10
2018-07-01T05:35:24.052Z,58.20
2018-07-01T05:37:52.542Z,60.40
2018-07-01T05:40:21.374Z,61.50
2018-07-01T05:42:51.016Z,63.60
2018-07-01T05:45:20.090Z,65.10
2018-07-01T05:47:48.416Z,66.00
2018-07-01T05:50:16.807Z,68.10
2018-07-01T05:52:45.171Z,70.10
2018-07-01T05:55:13.898Z,69.90
2018-07-01T05:57:42.443Z,71.00
2018-07-01T06:00:11.269Z,71.30
2018-07-01T06:02:39.626Z,72.00
2018-07-01T06:05:08.155Z,71.70
2018-07-01T06:07:36.750Z,71.60
2018-07-01T06:10:07.356Z,71.40
2018-07-01T06:12:35.743Z,71.80
2018-07-01T06:15:04.181Z,71.80
2018-07-01T06:17:33.297Z,72.00
2018-07-01T06:20:01.697Z,72.00
2018-07-01T06:22:30.113Z,72.90
2018-07-01T06:24:58.515Z,71.50
2018-07-01T06:27:27.916Z,71.00
2018-07-01T06:29:56.765Z,71.10
2018-07-01T06:32:25.106Z,70.60
2018-07-01T06:34:53.647Z,70.50
2018-07-01T06:37:22.397Z,70.00
2018-07-01T06:39:50.911Z,68.40
2018-07-01T06:42:19.291Z,68.50
2018-07-01T06:44:47.733Z,69.60
2018-07-01T06:47:16.473Z,67.80
2018-07-01T06:49:45.516Z,67.40
2018-07-01T06:52:14.012Z,67.60
2018-07-01T06:54:42.930Z,66.40
2018-07-01T06:57:12.004Z,66.70
2018-07-01T06:59:40.393Z,67.20
2018-07-01T07:02:09.461Z,65.30
2018-07-01T07:04:38.364Z,66.20
2018-07-01T07:07:06.769Z,66.30
2018-07-01T07:09:36.132Z,66.30
2018-07-01T07:12:05.992Z,64.70
2018-07-01T07:14:34.432Z,64.60
2018-07-01T07:17:03.179Z,63.80
2018-07-01T07:19:31.601Z,63.80
2018-07-01T07:22:00.062Z,63.10
2018-07-01T07:24:28.491Z,64.10
2018-07-01T07:26:56.925Z,63.40
2018-07-01T07:29:25.364Z,63.80
2018-07-01T07:31:53.828Z,64.60
2018-07-01T07:34:22.820Z,63.50
2018-07-01T07:36:51.419Z,64.10
2018-07-01T07:39:20.085Z,63.20
2018-07-01T07:41:48.523Z,61.90
2018-07-01T07:44:17.984Z,62.80
2018-07-01T07:46:47.080Z,63.90
2018-07-01T07:49:15.463Z,61.70
2018-07-01T07:51:44.602Z,62.70
2018-07-01T07:54:13.304Z,62.40
2018-07-01T07:56:41.720Z,62.80
2018-07-01T07:59:10.159Z,64.40
2018-07-01T08:01:38.545Z,62.70
2018-07-01T08:04:07.291Z,62.30
2018-07-01T08:06:36.422Z,63.40
2018-07-01T08:09:06.906Z,62.80
2018-07-01T08:11:35.437Z,63.00
2018-07-01T08:14:04.835Z,63.00
2018-07-01T08:16:33.664Z,62.60
2018-07-01T08:19:03.016Z,63.10
2018-07-01T08:21:32.191Z,64.30
2018-07-01T08:24:00.831Z,63.60
2018-07-01T08:26:29.346Z,63.40
2018-07-01T08:28:58.157Z,63.90
2018-07-01T08:31:27.595Z,61.80
2018-07-01T08:33:57.124Z,62.60
2018-07-01T08:36:25.651Z,61.80
2018-07-01T08:38:54.088Z,61.50
2018-07-01T08:41:23.851Z,60.50
2018-07-01T08:43:52.495Z,60.10
2018-07-01T08:46:22.167Z,61.20
2018-07-01T08:48:50.602Z,60.70
2018-07-01T08:51:20.626Z,59.10
2018-07-01T08:53:50.477Z,59.20
2018-07-01T08:56:19.931Z,59.60
2018-07-01T08:58:49.616Z,59.50
2018-07-01T09:01:21.045Z,58.30
2018-07-01T09:03:50.983Z,60.30
2018-07-01T09:06:20.954Z,58.30
2018-07-01T09:08:50.502Z,58.20
2018-07-01T09:11:19.997Z,59.80
2018-07-01T09:13:49.578Z,59.10
2018-07-01T09:16:19.059Z,57.80
2018-07-01T09:18:50.085Z,57.90
2018-07-01T09:21:19.994Z,58.00
2018-07-01T09:23:49.988Z,58.80
2018-07-01T09:26:21.043Z,58.40
2018-07-01T09:28:50.565Z,57.60
2018-07-01T09:31:20.560Z,57.10
2018-07-01T09:33:51.389Z,57.40
2018-07-01T09:36:21.899Z,57.70
2018-07-01T09:38:53.680Z,57.50
2018-07-01T09:41:23.273Z,59.00
2018-07-01T09:43:54.163Z,58.50
2018-07-01T09:46:25.311Z,58.70
2018-07-01T09:48:55.368Z,58.60
2018-07-01T09:51:25.689Z,58.40
2018-07-01T09:53:58.547Z,59.00
2018-07-01T09:56:28.139Z,57.50
2018-07-01T09:58:57.801Z,56.70
2018-07-01T10:01:28.349Z,59.60
2018-07-01T10:03:58.050Z,57.80
2018-07-01T10:06:27.929Z,57.70
2018-07-01T10:08:58.330Z,58.00
2018-07-01T10:11:28.437Z,57.30
2018-07-01T10:13:58.308Z,57.80
2018-07-01T10:16:28.377Z,58.40
2018-07-01T10:18:58.016Z,59.40
2018-07-01T10:21:28.437Z,58.10
2018-07-01T10:26:28.336Z,58.60
2018-07-01T10:29:06.879Z,59.60
2018-07-01T10:31:36.983Z,58.30
2018-07-01T10:34:07.551Z,57.50
2018-07-01T10:36:37.282Z,57.90
2018-07-01T10:39:09.724Z,57.50
2018-07-01T10:41:39.232Z,56.80
2018-07-01T10:44:08.809Z,58.10
2018-07-01T10:46:38.510Z,57.00
2018-07-01T10:49:09.216Z,57.50
2018-07-01T10:51:39.956Z,57.90
2018-07-01T10:54:09.846Z,58.20
2018-07-01T10:56:40.084Z,59.30
2018-07-01T10:59:09.866Z,59.50
2018-07-01T11:01:40.156Z,58.20
2018-07-01T11:04:10.809Z,57.50
2018-07-01T11:06:40.765Z,59.10
2018-07-01T11:09:11.937Z,57.20
2018-07-01T11:11:42.310Z,58.40
2018-07-01T11:14:11.784Z,58.00
2018-07-01T11:16:42.666Z,57.00
2018-07-01T11:19:12.887Z,57.30
2018-07-01T11:21:42.724Z,58.10
2018-07-01T11:24:12.153Z,57.10
2018-07-01T11:26:42.493Z,56.10
2018-07-01T11:29:15.863Z,55.10
2018-07-01T11:31:45.175Z,55.10
2018-07-01T11:34:15.941Z,55.70
2018-07-01T11:36:45.892Z,56.40
2018-07-01T11:39:15.724Z,57.20
2018-07-01T11:44:15.248Z,57.30
2018-07-01T11:46:44.826Z,54.10
2018-07-01T11:49:14.773Z,54.40
2018-07-01T11:51:45.615Z,55.80
2018-07-01T11:54:15.614Z,54.80
2018-07-01T11:56:45.725Z,56.00
2018-07-01T11:59:16.228Z,55.40
2018-07-01T12:01:46.211Z,56.60
2018-07-01T12:04:17.118Z,56.20
2018-07-01T12:06:47.222Z,56.30
2018-07-01T12:09:18.867Z,55.20
2018-07-01T12:11:48.376Z,55.90
2018-07-01T12:14:18.515Z,56.00
2018-07-01T12:16:48.641Z,57.50
2018-07-01T12:19:18.265Z,56.60
2018-07-01T12:21:47.808Z,58.60
2018-07-01T12:24:19.498Z,58.20
2018-07-01T12:26:49.489Z,58.00
2018-07-01T12:29:19.945Z,58.50
2018-07-01T12:31:50.297Z,58.00
2018-07-01T12:34:19.893Z,57.60
2018-07-01T12:36:49.350Z,58.30
2018-07-01T12:39:18.840Z,57.60
2018-07-01T12:41:48.284Z,56.10
2018-07-01T12:44:18.211Z,56.00
2018-07-01T12:46:48.488Z,57.00
2018-07-01T12:49:18.010Z,57.00
2018-07-01T12:51:48.106Z,57.40
2018-07-01T12:54:18.500Z,57.80
2018-07-01T12:56:48.656Z,57.40
2018-07-01T12:59:18.223Z,57.60
2018-07-01T13:01:48.533Z,57.90
2018-07-01T13:04:17.901Z,57.80
2018-07-01T13:06:47.500Z,56.50
2018-07-01T13:09:16.851Z,56.40
2018-07-01T13:11:47.792Z,57.00
2018-07-01T13:14:17.205Z,56.70
2018-07-01T13:16:46.525Z,56.90
2018-07-01T13:19:16.071Z,55.60
2018-07-01T13:21:45.519Z,55.00
2018-07-01T13:24:15.689Z,54.60
2018-07-01T13:26:45.107Z,54.50
2018-07-01T13:29:15.833Z,54.40
2018-07-01T13:31:45.845Z,53.90
2018-07-01T13:34:16.393Z,54.00
2018-07-01T13:36:45.925Z,54.50
2018-07-01T13:39:15.349Z,55.40
2018-07-01T13:41:44.935Z,56.30
2018-07-01T13:44:14.313Z,55.60
2018-07-01T13:46:44.408Z,54.90
2018-07-01T13:49:14.259Z,54.80
2018-07-01T13:51:43.944Z,56.90
2018-07-01T13:54:13.968Z,55.50
2018-07-01T13:56:44.764Z,58.00
2018-07-01T13:59:14.499Z,56.80
2018-07-01T14:01:44.099Z,56.50
2018-07-01T14:04:14.034Z,57.10
2018-07-01T14:06:43.562Z,56.00
2018-07-01T14:09:13.543Z,56.00
2018-07-01T14:11:43.743Z,56.00
2018-07-01T14:14:13.188Z,54.90
2018-07-01T14:16:43.509Z,54.90
2018-07-01T14:19:13.956Z,55.40
2018-07-01T14:21:44.587Z,55.50
2018-07-01T14:24:14.057Z,55.50
2018-07-01T14:26:44.099Z,54.50
2018-07-01T14:29:13.695Z,54.20
2018-07-01T14:31:43.215Z,54.70
2018-07-01T14:34:13.266Z,55.50
2018-07-01T14:36:43.138Z,54.30
2018-07-01T14:41:43.495Z,54.80
2018-07-01T14:44:13.412Z,54.70
2018-07-01T14:46:43.446Z,55.60
2018-07-01T14:49:13.179Z,54.10
2018-07-01T14:51:43.399Z,54.70
2018-07-01T14:54:13.254Z,54.80
2018-07-01T14:56:42.762Z,56.60
2018-07-01T14:59:12.685Z,55.70
2018-07-01T15:01:42.282Z,55.20
2018-07-01T15:04:12.442Z,54.80
2018-07-01T15:06:41.839Z,53.80
2018-07-01T15:09:12.328Z,54.00
2018-07-01T15:11:41.968Z,53.80
2018-07-01T15:14:11.668Z,53.60
2018-07-01T15:16:41.208Z,54.50
2018-07-01T15:19:10.644Z,54.30
2018-07-01T15:21:40.541Z,54.80
2018-07-01T15:24:10.675Z,55.40
2018-07-01T15:26:41.339Z,54.90
2018-07-01T15:29:10.908Z,56.00
2018-07-01T15:31:40.570Z,55.80
2018-07-01T15:34:10.665Z,54.30
2018-07-01T15:36:40.295Z,54.10
2018-07-01T15:39:11.007Z,54.30
2018-07-01T15:41:40.485Z,54.70
2018-07-01T15:44:10.501Z,53.90
2018-07-01T15:46:39.905Z,54.50
2018-07-01T15:49:10.137Z,54.50
2018-07-01T15:51:40.654Z,53.90
2018-07-01T15:54:10.935Z,52.90
2018-07-01T15:56:40.471Z,52.80
2018-07-01T15:59:10.084Z,53.20
2018-07-01T16:01:40.550Z,53.00
2018-07-01T16:04:10.026Z,53.30
2018-07-01T16:06:39.491Z,54.00
2018-07-01T16:09:11.295Z,55.30
2018-07-01T16:11:41.464Z,54.20
2018-07-01T16:14:11.098Z,53.90
2018-07-01T16:16:41.119Z,53.50
2018-07-01T16:19:10.844Z,53.50
2018-07-01T16:21:40.216Z,53.20
2018-07-01T16:24:09.813Z,54.10
2018-07-01T16:26:44.461Z,54.10
2018-07-01T16:29:13.888Z,54.90
2018-07-01T16:31:44.131Z,54.10
2018-07-01T16:34:14.277Z,54.10
2018-07-01T16:36:45.070Z,54.10
2018-07-01T16:39:15.866Z,53.80
2018-07-01T16:41:46.927Z,54.10
2018-07-01T16:44:16.753Z,54.30
2018-07-01T16:46:46.178Z,54.00
2018-07-01T16:49:15.517Z,53.70
2018-07-01T16:51:44.888Z,54.60
2018-07-01T16:54:15.310Z,53.90
2018-07-01T16:56:44.614Z,53.40
2018-07-01T16:59:14.104Z,52.80
2018-07-01T17:01:43.999Z,53.10
2018-07-01T17:04:13.634Z,52.80
2018-07-01T17:06:43.211Z,53.80
2018-07-01T17:09:12.770Z,53.70
2018-07-01T17:11:42.212Z,54.10
2018-07-01T17:14:11.661Z,53.20
2018-07-01T17:16:41.724Z,53.90
2018-07-01T17:19:11.161Z,53.50
2018-07-01T17:21:40.645Z,54.70
2018-07-01T17:24:10.792Z,54.70
2018-07-01T17:26:41.157Z,53.70
2018-07-01T17:29:10.590Z,54.40
2018-07-01T17:31:45.318Z,54.60
2018-07-01T17:34:14.667Z,53.90
2018-07-01T17:36:44.189Z,53.90
2018-07-01T17:39:14.072Z,53.50
2018-07-01T17:41:44.612Z,54.10
2018-07-01T17:44:14.729Z,53.90
2018-07-01T17:46:44.797Z,52.70
2018-07-01T17:49:14.964Z,53.60
2018-07-01T17:54:14.637Z,53.10
2018-07-01T17:56:44.558Z,53.10
2018-07-01T17:59:14.119Z,52.30
2018-07-01T18:01:43.750Z,52.40
2018-07-01T18:04:13.778Z,52.00
2018-07-01T18:06:43.911Z,51.90
2018-07-01T18:09:14.732Z,52.30
2018-07-01T18:11:44.281Z,51.90
2018-07-01T18:14:13.909Z,52.00
2018-07-01T18:16:43.337Z,53.10
2018-07-01T18:19:13.805Z,52.50
2018-07-01T18:21:52.999Z,51.80
2018-07-01T18:24:42.846Z,52.10
2018-07-01T18:26:44.893Z,51.70
2018-07-01T18:29:18.697Z,51.90
2018-07-01T18:31:44.802Z,52.10
2018-07-01T18:34:14.452Z,51.70
2018-07-01T18:36:44.496Z,51.60
2018-07-01T18:39:15.394Z,52.00
2018-07-01T18:41:45.827Z,52.30
2018-07-01T18:44:15.456Z,51.70
2018-07-01T18:46:45.077Z,51.90
2018-07-01T18:49:14.470Z,54.10
2018-07-01T18:51:44.471Z,54.30
2018-07-01T18:54:14.514Z,54.70
2018-07-01T18:56:44.797Z,53.10
2018-07-01T18:59:16.824Z,54.00
2018-07-01T19:01:47.610Z,53.40
2018-07-01T19:04:18.193Z,54.70
2018-07-01T19:06:48.302Z,53.00
2018-07-01T19:09:19.724Z,54.10
2018-07-01T19:11:51.144Z,53.50
2018-07-01T19:14:21.814Z,53.10
2018-07-01T19:16:51.975Z,54.10
2018-07-01T19:19:23.475Z,54.20
2018-07-01T19:21:54.187Z,54.80
2018-07-01T19:24:24.481Z,57.00
2018-07-01T19:26:53.956Z,55.80
2018-07-01T19:29:24.883Z,57.00
2018-07-01T19:31:56.471Z,57.70
2018-07-01T19:34:25.995Z,58.80
2018-07-01T19:36:56.735Z,56.80
2018-07-01T19:39:28.981Z,55.70
2018-07-01T19:42:00.113Z,56.90
2018-07-01T19:44:30.165Z,56.70
2018-07-01T19:47:00.198Z,57.40
2018-07-01T19:49:30.109Z,56.40
2018-07-01T19:52:01.306Z,62.00
2018-07-01T19:54:31.191Z,59.10
2018-07-01T19:57:01.907Z,61.60
2018-07-01T19:59:32.331Z,60.60
2018-07-01T20:02:01.995Z,61.40
2018-07-01T20:04:31.517Z,63.00
2018-07-01T20:07:01.256Z,64.30
2018-07-01T20:09:31.265Z,59.70
2018-07-01T20:12:01.233Z,62.10
2018-07-01T20:14:30.905Z,63.00
2018-07-01T20:17:01.241Z,61.10
2018-07-01T20:19:31.386Z,63.20
2018-07-01T20:22:01.390Z,65.50
2018-07-01T20:24:31.984Z,64.10
2018-07-01T20:27:03.406Z,64.70
2018-07-01T20:29:35.160Z,64.80
2018-07-01T20:32:04.734Z,63.00
2018-07-01T20:34:37.529Z,67.80
2018-07-01T20:37:09.714Z,65.00
2018-07-01T20:39:41.712Z,60.90
2018-07-01T20:42:12.469Z,66.30
2018-07-01T20:44:43.670Z,64.80
2018-07-01T20:47:14.569Z,66.90
2018-07-01T20:49:44.203Z,69.40
2018-07-01T20:52:14.675Z,68.90
2018-07-01T20:54:47.157Z,67.20
2018-07-01T20:57:17.066Z,71.20
2018-07-01T20:59:48.224Z,72.90
2018-07-01T21:02:19.146Z,74.60
2018-07-01T21:04:48.429Z,72.20
2018-07-01T21:07:18.711Z,74.10
2018-07-01T21:09:50.206Z,76.80
2018-07-01T21:12:20.090Z,78.40
2018-07-01T21:14:49.920Z,76.90
2018-07-01T21:17:20.072Z,76.10
2018-07-01T21:19:50.620Z,78.30
2018-07-01T21:22:20.700Z,78.10
2018-07-01T21:24:50.156Z,77.00
2018-07-01T21:27:21.226Z,77.20
2018-07-01T21:29:51.849Z,78.60
2018-07-01T21:32:21.261Z,78.40
2018-07-01T21:34:52.188Z,80.30
2018-07-01T21:37:22.463Z,79.90
2018-07-01T21:39:51.835Z,81.60
2018-07-01T21:42:21.868Z,84.60
2018-07-01T21:44:51.244Z,81.80
2018-07-01T21:47:22.385Z,81.80
2018-07-01T21:49:52.303Z,84.70
2018-07-01T21:52:22.124Z,83.90
2018-07-01T21:54:52.895Z,84.70
2018-07-01T21:57:23.559Z,86.90
2018-07-01T21:59:53.469Z,86.30
2018-07-01T22:02:24.612Z,86.20
2018-07-01T22:04:54.071Z,88.00
2018-07-01T22:07:24.410Z,87.00
2018-07-01T22:09:53.664Z,88.10
2018-07-01T22:12:35.060Z,87.50
2018-07-01T22:15:22.102Z,88.00
2018-07-01T22:17:51.790Z,88.30
2018-07-01T22:20:22.039Z,88.90
2018-07-01T22:22:53.272Z,88.80
2018-07-01T22:25:23.407Z,90.00
2018-07-01T22:27:54.841Z,90.90
2018-07-01T22:30:24.436Z,91.70
2018-07-01T22:32:55.245Z,92.00
2018-07-01T22:35:25.713Z,90.30
2018-07-01T22:37:57.333Z,90.50
2018-07-01T22:40:27.803Z,92.00
2018-07-01T22:42:57.807Z,92.20
2018-07-01T22:45:28.976Z,92.50
2018-07-01T22:47:59.227Z,91.40
2018-07-01T22:50:30.427Z,91.30
2018-07-01T22:53:01.068Z,91.00
2018-07-01T22:55:30.435Z,90.10
2018-07-01T22:57:59.824Z,91.50
2018-07-01T23:00:29.361Z,91.80
2018-07-01T23:03:14.972Z,94.70
2018-07-01T23:05:44.804Z,92.80
2018-07-01T23:08:14.871Z,92.70
2018-07-01T23:10:44.245Z,93.50
2018-07-01T23:13:15.451Z,94.90
2018-07-01T23:15:45.229Z,95.80
2018-07-01T23:18:15.215Z,95.60
2018-07-01T23:20:45.520Z,95.10
2018-07-01T23:23:15.605Z,95.70
2018-07-01T23:25:45.105Z,96.60
2018-07-01T23:28:14.448Z,96.10
2018-07-01T23:30:44.842Z,96.50
2018-07-01T23:33:14.678Z,96.60
2018-07-01T23:35:44.244Z,96.20
2018-07-01T23:40:43.215Z,96.40
2018-07-01T23:43:13.406Z,96.00
2018-07-01T23:45:42.684Z,96.50
2018-07-01T23:48:12.164Z,96.20
2018-07-01T23:50:41.511Z,96.50
2018-07-01T23:53:10.882Z,96.40
2018-07-01T23:55:40.216Z,96.70
2018-07-01T23:58:09.661Z,96.30
